Terminal Aerodrome Forecast
Issued by NWS Buffalo, NY

Home | Current Version | Previous Version | Text Only | Print | Product List | Glossary On
Versions: 1 2 3 4 5 6 7 8 9 10 11 12 13 14 15 16 17 18 19 20 21 22 23 24 25 26
000
FTUS41 KBUF 281120
TAFART
TAF
KART 281120Z 2812/2912 09004KT P6SM BKN090 OVC120
     FM281400 20010G16KT P6SM BKN060
     FM281900 23012G20KT P6SM BKN130
     FM282200 23009KT P6SM VCTS SCT050CB BKN250
     FM290000 22006KT P6SM VCSH BKN250
     FM290200 24006KT P6SM BKN050
     FM290400 25005KT P6SM BKN200=

USA.gov is the U.S. government's official web portal to all federal, state and local government web resources and services.